| time (UTC) | temp F | wind direction | speed MPH | gust MPH | rain 1hr in | rain 24hr in | rain mn in | humidity % | barometer mb |
| 20260506214547 | 54 | 332 | 0.0 | 1.0 | 0.00 | 1.18 | 0.21 | 52 | 1011.8 |
| 20260506213046 | 54 | 336 | 0.0 | 0.0 | 0.00 | 1.18 | 0.21 | 53 | 1011.8 |
| 20260506211542 | 54 | 294 | 0.0 | 1.0 | 0.00 | 1.18 | 0.21 | 52 | 1011.8 |
| 20260506210042 | 54 | 5 | 0.0 | 1.0 | 0.00 | 1.18 | 0.21 | 51 | 1011.6 |
| 20260506204543 | 54 | 334 | 0.0 | 1.0 | 0.00 | 1.18 | 0.21 | 50 | 1011.5 |
| 20260506203042 | 54 | 342 | 0.0 | 4.0 | 0.00 | 1.18 | 0.21 | 50 | 1011.4 |
| 20260506201541 | 54 | 284 | 0.0 | 8.0 | 0.00 | 1.18 | 0.21 | 52 | 1011.4 |
| 20260506200041 | 55 | 284 | 0.0 | 2.0 | 0.00 | 1.20 | 0.21 | 52 | 1011.6 |
| 20260506194539 | 55 | 338 | 0.0 | 3.0 | 0.00 | 1.20 | 0.21 | 50 | 1011.5 |
| 20260506193042 | 55 | 12 | 0.0 | 1.0 | 0.00 | 1.20 | 0.21 | 54 | 1011.3 |
| 20260506191538 | 55 | 303 | 0.0 | 0.0 | 0.00 | 1.20 | 0.21 | 51 | 1011.4 |
| 20260506190041 | 55 | 346 | 0.0 | 1.0 | 0.00 | 1.20 | 0.21 | 53 | 1011.3 |
| 20260506184546 | 55 | 333 | 0.0 | 5.0 | 0.00 | 1.20 | 0.21 | 55 | 1011.3 |
| 20260506183036 | 54 | 291 | 0.0 | 6.0 | 0.00 | 1.20 | 0.21 | 52 | 1011.5 |
| 20260506181536 | 55 | 314 | 0.0 | 1.0 | 0.00 | 1.20 | 0.21 | 52 | 1011.6 |
| 20260506180034 | 56 | 306 | 0.0 | 5.0 | 0.00 | 1.20 | 0.21 | 50 | 1011.2 |
| 20260506174533 | 57 | 337 | 0.0 | 5.0 | 0.00 | 1.20 | 0.21 | 56 | 1011.2 |
| 20260506173043 | 57 | 324 | 0.0 | 4.0 | 0.00 | 1.20 | 0.21 | 55 | 1011.4 |
| 20260506171530 | 56 | 346 | 0.0 | 5.0 | 0.00 | 1.20 | 0.21 | 55 | 1011.5 |
| 20260506170026 | 56 | 32 | 0.0 | 4.0 | 0.00 | 1.20 | 0.21 | 59 | 1011.1 |
| 20260506164526 | 55 | 284 | 0.0 | 8.0 | 0.00 | 1.20 | 0.21 | 59 | 1011.1 |
| 20260506163031 | 55 | 19 | 0.0 | 11.0 | 0.00 | 1.20 | 0.21 | 59 | 1010.9 |
| 20260506161523 | 55 | 289 | 0.0 | 5.0 | 0.00 | 1.20 | 0.21 | 61 | 1011.4 |
| 20260506160021 | 54 | 281 | 0.0 | 5.0 | 0.00 | 1.20 | 0.21 | 66 | 1011.3 |
| 20260506154517 | 54 | 329 | 0.0 | 0.0 | 0.00 | 1.20 | 0.21 | 66 | 1010.9 |
| 20260506153012 | 53 | 306 | 0.0 | 4.0 | 0.00 | 1.20 | 0.21 | 71 | 1010.6 |
| 20260506151510 | 53 | 272 | 0.0 | 5.0 | 0.00 | 1.20 | 0.21 | 69 | 1010.7 |
| 20260506150006 | 52 | 342 | 0.0 | 1.0 | 0.00 | 1.20 | 0.21 | 72 | 1010.4 |
| 20260506144504 | 52 | 284 | 0.0 | 3.0 | 0.00 | 1.20 | 0.21 | 75 | 1010.5 |
| 20260506143059 | 51 | 296 | 0.0 | 1.0 | 0.00 | 1.20 | 0.21 | 76 | 1010.1 |
| 20260506141554 | 49 | 319 | 0.0 | 7.0 | 0.00 | 1.20 | 0.21 | 79 | 1009.9 |
| 20260506140050 | 48 | 300 | 0.0 | 2.0 | 0.00 | 1.20 | 0.21 | 82 | 1009.7 |
| 20260506134544 | 47 | 333 | 0.0 | 5.0 | 0.00 | 1.20 | 0.21 | 83 | 1009.7 |
| 20260506133041 | 46 | 317 | 0.0 | 0.0 | 0.00 | 1.20 | 0.21 | 87 | 1010.0 |
| 20260506131548 | 46 | 319 | 0.0 | 0.0 | 0.00 | 1.20 | 0.21 | 88 | 1009.8 |
| 20260506130052 | 45 | 312 | 0.0 | 0.0 | 0.00 | 1.20 | 0.21 | 89 | 1009.5 |
| 20260506124532 | 45 | 17 | 0.0 | 0.0 | 0.00 | 1.20 | 0.21 | 90 | 1009.4 |
| 20260506123029 | 44 | 320 | 0.0 | 0.0 | 0.00 | 1.20 | 0.21 | 91 | 1009.0 |
| 20260506121526 | 44 | 326 | 0.0 | 0.0 | 0.00 | 1.20 | 0.21 | 91 | 1008.9 |
| 20260506120023 | 44 | 315 | 0.0 | 0.0 | 0.00 | 1.20 | 0.21 | 91 | 1008.5 |
| 20260506114520 | 44 | 323 | 0.0 | 1.0 | 0.00 | 1.20 | 0.21 | 91 | 1008.0 |
| 20260506113017 | 43 | 303 | 0.0 | 0.0 | 0.00 | 1.20 | 0.21 | 91 | 1007.9 |
| 20260506111513 | 43 | 9 | 0.0 | 0.0 | 0.00 | 1.20 | 0.21 | 91 | 1007.7 |
| 20260506110010 | 43 | 314 | 0.0 | 0.0 | 0.00 | 1.20 | 0.21 | 92 | 1008.1 |
| 20260506104507 | 43 | 355 | 0.0 | 0.0 | 0.00 | 1.20 | 0.21 | 93 | 1007.7 |
| 20260506103009 | 43 | 5 | 0.0 | 1.0 | 0.00 | 1.20 | 0.21 | 94 | 1006.9 |
| 20260506101512 | 43 | 340 | 0.0 | 0.0 | 0.00 | 1.20 | 0.21 | 94 | 1007.5 |
| 20260506100120 | 45 | 15 | 0.0 | 0.0 | 0.00 | 1.20 | 0.21 | 95 | 1006.9 |
| 20260506094559 | 45 | 355 | 0.0 | 1.0 | 0.00 | 1.20 | 0.21 | 95 | 1006.6 |
| 20260506093058 | 45 | 319 | 0.0 | 0.0 | 0.01 | 1.20 | 0.21 | 95 | 1006.7 |
| 20260506091558 | 45 | 360 | 0.0 | 0.0 | 0.01 | 1.20 | 0.21 | 95 | 1005.8 |
| 20260506090056 | 45 | 32 | 0.0 | 0.0 | 0.01 | 1.20 | 0.21 | 95 | 1006.0 |
| 20260506084621 | 45 | 5 | 0.0 | 1.0 | 0.01 | 1.20 | 0.21 | 95 | 1006.8 |
| 20260506083055 | 45 | 5 | 0.0 | 0.0 | 0.01 | 1.19 | 0.20 | 95 | 1006.7 |
| 20260506081557 | 45 | 26 | 0.0 | 3.0 | 0.01 | 1.19 | 0.20 | 95 | 1006.7 |
| 20260506073052 | 45 | 323 | 0.0 | 6.0 | 0.05 | 1.19 | 0.19 | 95 | 1006.4 |
| 20260506071551 | 46 | 350 | 0.0 | 5.0 | 0.06 | 1.19 | 0.19 | 96 | 1006.7 |
| 20260506061548 | 45 | 351 | 0.0 | 0.0 | 0.08 | 1.12 | 0.13 | 95 | 1006.1 |
| 20260506044634 | 46 | 328 | 0.0 | 0.0 | 0.02 | 1.02 | 0.02 | 95 | 1006.9 |
| 20260506043038 | 47 | 347 | 0.0 | 0.0 | 0.03 | 1.02 | 0.02 | 95 | 1006.5 |
| 20260506041534 | 46 | 11 | 0.0 | 0.0 | 0.03 | 1.01 | 0.01 | 95 | 1006.2 |
| 20260506040035 | 46 | 336 | 0.0 | 0.0 | 0.04 | 1.00 | 1.00 | 95 | 1006.0 |
| 20260506034600 | 46 | 12 | 0.0 | 0.0 | 0.07 | 1.00 | 1.00 | 95 | 1006.2 |
| 20260506033032 | 47 | 14 | 0.0 | 3.0 | 0.08 | 0.99 | 0.99 | 94 | 1006.4 |
| 20260506031529 | 47 | 5 | 0.0 | 0.0 | 0.08 | 0.98 | 0.98 | 95 | 1006.6 |
| 20260506030027 | 47 | 355 | 0.0 | 1.0 | 0.09 | 0.96 | 0.96 | 95 | 1006.9 |
| 20260506024528 | 47 | 23 | 0.0 | 0.0 | 0.11 | 0.93 | 0.93 | 95 | 1007.1 |
| 20260506023026 | 48 | 14 | 0.0 | 3.0 | 0.12 | 0.91 | 0.91 | 95 | 1007.3 |
| 20260506021521 | 48 | 83 | 0.0 | 5.0 | 0.14 | 0.90 | 0.90 | 94 | 1007.2 |
| 20260506020018 | 49 | 311 | 0.0 | 1.0 | 0.12 | 0.87 | 0.87 | 95 | 1007.2 |
| 20260506014520 | 49 | 5 | 0.0 | 1.0 | 0.11 | 0.82 | 0.82 | 95 | 1006.9 |
| 20260506013014 | 49 | 325 | 0.0 | 4.0 | 0.11 | 0.79 | 0.79 | 94 | 1006.5 |
| 20260506011515 | 50 | 9 | 0.0 | 1.0 | 0.16 | 0.76 | 0.76 | 94 | 1006.2 |
| 20260506010013 | 50 | 355 | 0.0 | 0.0 | 0.22 | 0.75 | 0.75 | 94 | 1006.3 |
| 20260506004518 | 50 | 17 | 0.0 | 9.0 | 0.25 | 0.71 | 0.71 | 94 | 1006.1 |
| 20260506003008 | 51 | 360 | 0.0 | 10.0 | 0.24 | 0.67 | 0.67 | 94 | 1006.1 |
| 20260506001502 | 52 | 15 | 2.0 | 12.0 | 0.17 | 0.60 | 0.60 | 93 | 1005.6 |
| 20260506000059 | 54 | 26 | 0.0 | 2.0 | 0.11 | 0.53 | 0.53 | 94 | 1005.5 |
| 20260505234630 | 55 | 355 | 0.0 | 0.0 | 0.04 | 0.46 | 0.46 | 94 | 1005.0 |
| 20260505233100 | 55 | 71 | 0.0 | 0.0 | 0.04 | 0.43 | 0.43 | 94 | 1004.8 |
| 20260505231556 | 55 | 76 | 0.0 | 0.0 | 0.08 | 0.43 | 0.43 | 93 | 1005.1 |
| 20260505230054 | 55 | 66 | 0.0 | 0.0 | 0.10 | 0.42 | 0.42 | 93 | 1005.2 |
| 20260505224551 | 55 | 5 | 0.0 | 0.0 | 0.13 | 0.42 | 0.42 | 91 | 1005.5 |
| 20260505223047 | 58 | 322 | 0.0 | 14.0 | 0.14 | 0.39 | 0.39 | 92 | 1005.8 |
| 20260505221546 | 59 | 235 | 0.0 | 4.0 | 0.17 | 0.35 | 0.35 | 92 | 1005.5 |
| 20260505220059 | 59 | 334 | 0.0 | 0.0 | 0.28 | 0.32 | 0.32 | 92 | 1005.6 |